Time;durP1;ratioP1;P1;durP2;ratioP2;P2;SDS_P1;SDS_P2;PMS_P1;PMS_P2;Temp;Humidity;BMP_temperature;BMP_pressure;BME280_temperature;BME280_humidity;BME280_pressure;Samples;Min_cycle;Max_cycle;Signal;HPM_P1;HPM_P2
2024/03/12 00:01:39;;;;;;;18.23;15.90;;;;;;;;;;4977996;28;20450;-81
2024/03/12 00:04:08;;;;;;;16.37;15.47;;;;;;;;;;4978753;28;20887;-81
2024/03/12 00:06:36;;;;;;;17.73;16.63;;;;;;;;;;4978398;28;20457;-81
2024/03/12 00:09:09;;;;;;;17.93;16.53;;;;;;;;;;4977834;28;20489;-82
2024/03/12 00:11:36;;;;;;;17.07;16.07;;;;;;;;;;4977814;28;20477;-82
2024/03/12 00:14:03;;;;;;;17.53;16.33;;;;;;;;;;4978767;28;20463;-83
2024/03/12 00:16:30;;;;;;;17.03;16.13;;;;;;;;;;4977970;28;20467;-82
2024/03/12 00:18:57;;;;;;;17.47;16.47;;;;;;;;;;4977693;28;21045;-81
2024/03/12 00:21:25;;;;;;;17.87;16.77;;;;;;;;;;4977101;28;20493;-81
2024/03/12 00:23:53;;;;;;;17.30;16.10;;;;;;;;;;4978481;28;20565;-82
2024/03/12 00:26:22;;;;;;;17.77;16.73;;;;;;;;;;4976942;28;20838;-81
2024/03/12 00:28:49;;;;;;;17.67;16.60;;;;;;;;;;4978019;28;20439;-81
2024/03/12 00:31:17;;;;;;;17.50;16.40;;;;;;;;;;4976874;28;20470;-81
2024/03/12 00:33:47;;;;;;;18.10;17.00;;;;;;;;;;4977952;28;20441;-82
2024/03/12 00:36:13;;;;;;;17.50;16.40;;;;;;;;;;4977520;28;20554;-81
2024/03/12 00:38:41;;;;;;;17.40;16.30;;;;;;;;;;4976617;28;20989;-81
2024/03/12 00:41:10;;;;;;;17.83;16.47;;;;;;;;;;4976389;28;20481;-81
2024/03/12 00:43:37;;;;;;;17.00;16.10;;;;;;;;;;4977590;28;20484;-81
2024/03/12 00:46:05;;;;;;;18.03;16.93;;;;;;;;;;4977822;28;21062;-81
2024/03/12 00:48:32;;;;;;;18.17;16.90;;;;;;;;;;4977787;28;20443;-81
2024/03/12 00:50:59;;;;;;;18.47;17.37;;;;;;;;;;4975619;28;20503;-81
2024/03/12 00:53:27;;;;;;;17.43;16.33;;;;;;;;;;4977691;28;20470;-82
2024/03/12 00:55:54;;;;;;;17.93;16.83;;;;;;;;;;4977732;28;20554;-81
2024/03/12 00:58:23;;;;;;;17.70;16.60;;;;;;;;;;4977298;28;20785;-80
2024/03/12 01:00:52;;;;;;;17.03;16.03;;;;;;;;;;4975608;28;20842;-81
2024/03/12 01:03:19;;;;;;;16.70;15.70;;;;;;;;;;4977252;28;20493;-81
2024/03/12 01:05:46;;;;;;;19.23;18.07;;;;;;;;;;4977557;28;20429;-82
2024/03/12 01:08:14;;;;;;;17.67;16.67;;;;;;;;;;4977910;28;20494;-81
2024/03/12 01:10:41;;;;;;;17.57;16.57;;;;;;;;;;4976840;28;20447;-82
2024/03/12 01:13:09;;;;;;;17.40;16.40;;;;;;;;;;4976573;28;20844;-84
2024/03/12 01:15:37;;;;;;;18.27;17.17;;;;;;;;;;4978016;28;20450;-82
2024/03/12 01:18:12;;;;;;;17.70;16.70;;;;;;;;;;4976441;28;20470;-81
2024/03/12 01:20:39;;;;;;;17.90;16.53;;;;;;;;;;4976871;28;20493;-81
2024/03/12 01:23:07;;;;;;;19.07;17.80;;;;;;;;;;4979136;28;20512;-81
2024/03/12 01:25:34;;;;;;;18.00;16.90;;;;;;;;;;4980559;28;20456;-81
2024/03/12 01:28:02;;;;;;;17.40;16.40;;;;;;;;;;4980528;28;20465;-81
2024/03/12 01:30:30;;;;;;;18.47;17.33;;;;;;;;;;4981775;28;20822;-80
2024/03/12 01:32:59;;;;;;;19.07;17.40;;;;;;;;;;4980782;28;20469;-81
2024/03/12 01:35:30;;;;;;;19.37;17.70;;;;;;;;;;4980218;28;20466;-80
2024/03/12 01:37:57;;;;;;;18.50;17.30;;;;;;;;;;4981489;28;20478;-82
2024/03/12 01:40:27;;;;;;;17.63;16.50;;;;;;;;;;4980320;28;20448;-82
2024/03/12 01:42:56;;;;;;;18.10;17.10;;;;;;;;;;4980152;28;20468;-81
2024/03/12 01:45:25;;;;;;;17.37;16.37;;;;;;;;;;4980939;28;20478;-82
2024/03/12 01:47:52;;;;;;;18.07;16.97;;;;;;;;;;4981066;28;20442;-82
2024/03/12 01:50:21;;;;;;;18.57;17.37;;;;;;;;;;4981102;28;20537;-81
2024/03/12 01:52:50;;;;;;;19.43;18.13;;;;;;;;;;4980379;28;20446;-81
2024/03/12 01:55:18;;;;;;;18.43;17.43;;;;;;;;;;4980895;28;20652;-81
2024/03/12 01:57:46;;;;;;;19.17;17.77;;;;;;;;;;4980531;28;20580;-81
2024/03/12 02:00:14;;;;;;;18.10;16.90;;;;;;;;;;4980818;28;20420;-81
2024/03/12 02:02:41;;;;;;;19.17;17.97;;;;;;;;;;4980866;28;20433;-81
2024/03/12 02:05:10;;;;;;;17.43;16.43;;;;;;;;;;4980392;28;20536;-82
2024/03/12 02:07:38;;;;;;;19.90;18.43;;;;;;;;;;4980724;28;20428;-81
2024/03/12 02:10:05;;;;;;;18.53;17.33;;;;;;;;;;4980752;28;20453;-81
2024/03/12 02:12:32;;;;;;;18.57;17.33;;;;;;;;;;4979934;28;20479;-81
2024/03/12 02:15:03;;;;;;;18.63;17.30;;;;;;;;;;4980016;28;20547;-80
2024/03/12 02:17:30;;;;;;;17.93;16.63;;;;;;;;;;4980869;28;20953;-81
2024/03/12 02:19:57;;;;;;;19.37;17.87;;;;;;;;;;4980773;28;21177;-80
2024/03/12 02:22:25;;;;;;;19.43;18.30;;;;;;;;;;4979637;28;20454;-81
2024/03/12 02:24:53;;;;;;;18.73;17.53;;;;;;;;;;4979613;28;20573;-81
2024/03/12 02:27:20;;;;;;;18.37;17.07;;;;;;;;;;4980189;28;20450;-81
2024/03/12 02:29:47;;;;;;;18.73;17.53;;;;;;;;;;4979673;28;20483;-81
2024/03/12 02:32:15;;;;;;;19.20;17.87;;;;;;;;;;4979343;28;20429;-81
2024/03/12 02:34:44;;;;;;;19.10;17.60;;;;;;;;;;4979679;28;20804;-81
2024/03/12 02:37:11;;;;;;;18.03;16.93;;;;;;;;;;4979544;28;21031;-82
2024/03/12 02:39:38;;;;;;;19.50;18.10;;;;;;;;;;4980153;28;20505;-82
2024/03/12 02:42:08;;;;;;;21.67;20.27;;;;;;;;;;4979736;28;20507;-81
2024/03/12 02:44:35;;;;;;;18.63;17.33;;;;;;;;;;4979583;28;20470;-81
2024/03/12 02:47:03;;;;;;;20.07;18.83;;;;;;;;;;4979284;28;20500;-81
2024/03/12 02:49:30;;;;;;;19.70;18.23;;;;;;;;;;4980178;28;20544;-82
2024/03/12 02:51:57;;;;;;;20.73;19.10;;;;;;;;;;4979458;28;20487;-81
2024/03/12 02:54:25;;;;;;;20.33;18.97;;;;;;;;;;4980168;28;20486;-81
2024/03/12 02:56:53;;;;;;;20.43;18.83;;;;;;;;;;4978962;28;20472;-81
2024/03/12 02:59:22;;;;;;;20.53;19.13;;;;;;;;;;4979505;28;20454;-81
2024/03/12 03:01:49;;;;;;;21.07;19.57;;;;;;;;;;4979272;28;20461;-81
2024/03/12 03:04:16;;;;;;;21.33;19.83;;;;;;;;;;4979763;28;20462;-81
2024/03/12 03:06:44;;;;;;;19.23;17.93;;;;;;;;;;4979037;28;20519;-81
2024/03/12 03:09:12;;;;;;;21.90;20.30;;;;;;;;;;4979633;28;20940;-81
2024/03/12 03:11:40;;;;;;;21.40;19.90;;;;;;;;;;4979351;28;20446;-81
2024/03/12 03:14:06;;;;;;;21.00;19.50;;;;;;;;;;4979672;28;20474;-81
2024/03/12 03:16:35;;;;;;;20.87;19.53;;;;;;;;;;4979104;28;20490;-81
2024/03/12 03:19:02;;;;;;;22.57;20.87;;;;;;;;;;4979219;28;20505;-81
2024/03/12 03:21:29;;;;;;;22.07;20.37;;;;;;;;;;4978532;28;20942;-82
2024/03/12 03:23:57;;;;;;;21.53;19.93;;;;;;;;;;4978962;28;20457;-82
2024/03/12 03:26:24;;;;;;;22.70;20.90;;;;;;;;;;4979088;28;20932;-81
2024/03/12 03:28:51;;;;;;;22.57;20.83;;;;;;;;;;4978689;28;20424;-82
2024/03/12 03:31:18;;;;;;;23.17;21.30;;;;;;;;;;4977841;28;20885;-81
2024/03/12 03:33:47;;;;;;;23.00;21.10;;;;;;;;;;4978662;28;20448;-82
2024/03/12 03:36:14;;;;;;;22.70;20.83;;;;;;;;;;4979119;28;20467;-82
2024/03/12 03:38:41;;;;;;;22.67;20.83;;;;;;;;;;4979100;28;20842;-81
2024/03/12 03:41:09;;;;;;;24.33;22.40;;;;;;;;;;4977086;28;20454;-81
2024/03/12 03:43:36;;;;;;;23.43;21.63;;;;;;;;;;4978679;28;20462;-81
2024/03/12 03:46:04;;;;;;;26.23;24.13;;;;;;;;;;4977933;28;20454;-81
2024/03/12 03:48:31;;;;;;;25.27;23.00;;;;;;;;;;4978515;28;20441;-81
2024/03/12 03:50:59;;;;;;;24.83;22.40;;;;;;;;;;4977975;28;20421;-81
2024/03/12 03:53:27;;;;;;;26.07;23.77;;;;;;;;;;4977416;28;20438;-80
2024/03/12 03:55:54;;;;;;;27.50;25.00;;;;;;;;;;4978379;28;20444;-81
2024/03/12 03:58:22;;;;;;;26.10;23.90;;;;;;;;;;4978668;28;20468;-81
2024/03/12 04:00:50;;;;;;;28.33;25.40;;;;;;;;;;4977404;28;20811;-81
2024/03/12 04:03:17;;;;;;;26.57;24.30;;;;;;;;;;4961083;28;20454;-81
2024/03/12 04:05:47;;;;;;;28.53;25.93;;;;;;;;;;4977879;28;21376;-81
2024/03/12 04:08:16;;;;;;;29.17;26.37;;;;;;;;;;4977883;28;20804;-81
2024/03/12 04:10:43;;;;;;;29.20;26.40;;;;;;;;;;4977947;28;20966;-81
2024/03/12 04:13:10;;;;;;;30.53;27.50;;;;;;;;;;4977840;28;20433;-83
2024/03/12 04:15:37;;;;;;;31.73;28.37;;;;;;;;;;4977850;28;20446;-81
2024/03/12 04:18:04;;;;;;;33.00;29.53;;;;;;;;;;4977261;28;20495;-81
2024/03/12 04:20:31;;;;;;;32.80;29.40;;;;;;;;;;4977930;28;20439;-82
2024/03/12 04:22:58;;;;;;;33.33;29.87;;;;;;;;;;4977581;28;20429;-80
2024/03/12 04:25:28;;;;;;;35.83;32.23;;;;;;;;;;4977511;28;20441;-81
2024/03/12 04:27:55;;;;;;;37.47;33.30;;;;;;;;;;4977978;28;20425;-82
2024/03/12 04:30:22;;;;;;;33.67;30.17;;;;;;;;;;4978080;28;20436;-81
2024/03/12 04:32:49;;;;;;;32.23;28.43;;;;;;;;;;4977558;28;20493;-81
2024/03/12 04:35:16;;;;;;;31.17;27.93;;;;;;;;;;4977104;28;20488;-83
2024/03/12 04:37:44;;;;;;;32.73;29.30;;;;;;;;;;4977960;28;21188;-82
2024/03/12 04:40:11;;;;;;;33.90;30.50;;;;;;;;;;4976415;28;20918;-81
2024/03/12 04:42:43;;;;;;;32.00;28.60;;;;;;;;;;4977907;28;20409;-82
2024/03/12 04:45:10;;;;;;;32.10;28.80;;;;;;;;;;4977977;28;20439;-80
2024/03/12 04:47:40;;;;;;;38.03;34.17;;;;;;;;;;4977741;28;20420;-82
2024/03/12 04:50:09;;;;;;;31.50;28.30;;;;;;;;;;4977063;28;20956;-82
2024/03/12 04:52:36;;;;;;;33.30;30.20;;;;;;;;;;4977129;28;21137;-81
2024/03/12 04:55:04;;;;;;;39.00;34.80;;;;;;;;;;4977789;28;20452;-81
2024/03/12 04:57:34;;;;;;;34.43;30.87;;;;;;;;;;4976926;28;20490;-80
2024/03/12 05:00:13;;;;;;;35.87;31.97;;;;;;;;;;4977536;28;20425;-82
2024/03/12 05:02:40;;;;;;;36.03;31.33;;;;;;;;;;4976623;28;20543;-81
2024/03/12 05:05:08;;;;;;;25.67;23.17;;;;;;;;;;4975208;28;21048;-82
2024/03/12 05:07:35;;;;;;;32.83;29.30;;;;;;;;;;4977881;28;20462;-82
2024/03/12 05:10:04;;;;;;;36.77;32.83;;;;;;;;;;4976508;28;20450;-81
2024/03/12 05:12:31;;;;;;;31.17;27.80;;;;;;;;;;4977076;28;20785;-82
2024/03/12 05:14:58;;;;;;;55.90;50.10;;;;;;;;;;4976460;28;20460;-81
2024/03/12 05:17:26;;;;;;;53.27;47.43;;;;;;;;;;4977646;28;20469;-81
2024/03/12 05:19:55;;;;;;;46.27;41.30;;;;;;;;;;4976250;28;20433;-82
2024/03/12 05:22:23;;;;;;;39.70;35.57;;;;;;;;;;4976561;28;20894;-81
2024/03/12 05:24:50;;;;;;;37.57;30.40;;;;;;;;;;4976532;28;20846;-80
2024/03/12 05:27:32;;;;;;;33.63;29.77;;;;;;;;;;4977374;28;20438;-82
2024/03/12 05:30:04;;;;;;;48.67;38.57;;;;;;;;;;4978068;28;20444;-81
2024/03/12 05:32:33;;;;;;;43.60;33.37;;;;;;;;;;4975575;28;20461;-81
2024/03/12 05:35:00;;;;;;;38.83;30.83;;;;;;;;;;4976674;28;20433;-81
2024/03/12 05:37:40;;;;;;;47.43;36.57;;;;;;;;;;4977127;28;20536;-80
2024/03/12 05:40:14;;;;;;;58.13;39.40;;;;;;;;;;4977654;28;20444;-81
2024/03/12 05:48:12;;;;;;;46.07;36.10;;;;;;;;;;4976959;28;20393;-82
2024/03/12 05:50:39;;;;;;;50.07;37.17;;;;;;;;;;4977124;28;20420;-82
2024/03/12 05:53:06;;;;;;;47.57;34.70;;;;;;;;;;4977146;28;20828;-80
2024/03/12 05:55:34;;;;;;;44.97;37.10;;;;;;;;;;4976389;28;20470;-81
2024/03/12 05:58:01;;;;;;;58.17;38.50;;;;;;;;;;4976857;28;20570;-81
2024/03/12 06:00:28;;;;;;;53.23;39.20;;;;;;;;;;4976934;28;20585;-80
2024/03/12 06:03:03;;;;;;;57.30;39.23;;;;;;;;;;4975914;28;20432;-81
2024/03/12 06:05:31;;;;;;;31.20;25.77;;;;;;;;;;4977222;28;20963;-81
2024/03/12 06:07:59;;;;;;;57.20;38.83;;;;;;;;;;4976816;28;21010;-81
2024/03/12 06:10:26;;;;;;;40.00;31.17;;;;;;;;;;4981563;28;20421;-81
2024/03/12 06:12:53;;;;;;;55.40;37.77;;;;;;;;;;4980112;28;20542;-82
2024/03/12 06:15:20;;;;;;;41.40;28.37;;;;;;;;;;4980164;28;20499;-81
2024/03/12 06:17:47;;;;;;;61.47;39.83;;;;;;;;;;4980185;28;20517;-81
2024/03/12 06:20:15;;;;;;;66.77;39.87;;;;;;;;;;4978600;28;20930;-81
2024/03/12 06:22:44;;;;;;;56.43;40.17;;;;;;;;;;4980385;28;20503;-81
2024/03/12 06:25:12;;;;;;;55.30;39.97;;;;;;;;;;4980099;28;20470;-81
2024/03/12 06:27:39;;;;;;;77.60;45.37;;;;;;;;;;4980250;28;20542;-81
2024/03/12 06:30:06;;;;;;;72.07;46.77;;;;;;;;;;4980152;28;20410;-80
2024/03/12 06:32:34;;;;;;;67.97;41.83;;;;;;;;;;4979642;28;20429;-81
2024/03/12 06:35:01;;;;;;;56.80;40.23;;;;;;;;;;4980147;28;20477;-81
2024/03/12 06:37:28;;;;;;;49.30;32.50;;;;;;;;;;4979517;28;20571;-81
2024/03/12 06:39:57;;;;;;;63.47;40.50;;;;;;;;;;4979661;28;20480;-81
2024/03/12 06:42:29;;;;;;;65.40;43.03;;;;;;;;;;4979668;28;20521;-82
2024/03/12 06:44:56;;;;;;;74.00;43.50;;;;;;;;;;4978234;28;20529;-81
2024/03/12 06:47:25;;;;;;;41.63;29.97;;;;;;;;;;4980451;28;20426;-80
2024/03/12 06:49:52;;;;;;;62.30;42.13;;;;;;;;;;4981752;28;20450;-81
2024/03/12 06:52:22;;;;;;;77.13;46.90;;;;;;;;;;4983622;28;20455;-80
2024/03/12 06:54:50;;;;;;;71.03;44.10;;;;;;;;;;4981070;28;20235;-80
2024/03/12 06:57:22;;;;;;;71.83;42.10;;;;;;;;;;4979501;28;20466;-81
2024/03/12 06:59:48;;;;;;;70.70;46.00;;;;;;;;;;4979215;28;20449;-80
2024/03/12 07:02:17;;;;;;;78.20;46.03;;;;;;;;;;4977911;28;20454;-81
2024/03/12 07:04:47;;;;;;;68.67;41.50;;;;;;;;;;4979424;28;20466;-81
2024/03/12 07:07:18;;;;;;;74.30;44.80;;;;;;;;;;4979710;28;20777;-80
2024/03/12 07:09:45;;;;;;;72.00;47.03;;;;;;;;;;4978039;28;20450;-81
2024/03/12 07:12:16;;;;;;;76.00;48.07;;;;;;;;;;4978933;28;20454;-80
2024/03/12 07:14:45;;;;;;;83.63;45.87;;;;;;;;;;4978437;28;21157;-80
2024/03/12 07:17:14;;;;;;;77.27;46.67;;;;;;;;;;4978861;28;20438;-80
2024/03/12 07:19:42;;;;;;;72.87;47.13;;;;;;;;;;4978701;28;20488;-80
2024/03/12 07:22:10;;;;;;;78.90;45.23;;;;;;;;;;4978020;28;20445;-80
2024/03/12 07:24:38;;;;;;;77.13;47.13;;;;;;;;;;4978390;28;21317;-81
2024/03/12 07:27:06;;;;;;;81.20;47.93;;;;;;;;;;4979114;28;20509;-80
2024/03/12 07:29:33;;;;;;;81.83;51.07;;;;;;;;;;4978815;28;21197;-78
2024/03/12 07:32:03;;;;;;;73.47;47.77;;;;;;;;;;4978286;28;20489;-80
2024/03/12 07:34:30;;;;;;;76.40;49.83;;;;;;;;;;4979059;28;20467;-81
2024/03/12 07:36:57;;;;;;;69.27;46.57;;;;;;;;;;4978537;28;20529;-80
2024/03/12 07:39:31;;;;;;;71.27;44.40;;;;;;;;;;4976922;28;20477;-80
2024/03/12 07:41:58;;;;;;;80.87;48.93;;;;;;;;;;4977747;28;20853;-80
2024/03/12 07:44:26;;;;;;;91.60;50.90;;;;;;;;;;4978148;28;20952;-80
2024/03/12 07:46:54;;;;;;;89.00;49.30;;;;;;;;;;4978842;28;20458;-80
2024/03/12 07:49:23;;;;;;;91.67;52.23;;;;;;;;;;4978385;28;20486;-80
2024/03/12 07:51:50;;;;;;;98.27;51.37;;;;;;;;;;4977780;28;20432;-80
2024/03/12 07:54:18;;;;;;;102.43;55.33;;;;;;;;;;4978292;28;20470;-82
2024/03/12 07:56:48;;;;;;;128.93;64.60;;;;;;;;;;4978214;28;20454;-80
2024/03/12 07:59:16;;;;;;;75.40;43.57;;;;;;;;;;4977925;28;20558;-80
2024/03/12 08:01:44;;;;;;;99.20;56.57;;;;;;;;;;4978523;28;20463;-82
2024/03/12 08:04:12;;;;;;;131.50;62.40;;;;;;;;;;4978724;28;20565;-80
2024/03/12 08:06:41;;;;;;;110.77;62.30;;;;;;;;;;4978722;28;20462;-80
2024/03/12 08:09:08;;;;;;;120.60;56.50;;;;;;;;;;4978927;28;20424;-82
2024/03/12 08:11:36;;;;;;;123.33;57.90;;;;;;;;;;4977657;28;21013;-81
2024/03/12 08:14:03;;;;;;;100.23;55.50;;;;;;;;;;4978152;28;20960;-81
2024/03/12 08:16:31;;;;;;;111.70;55.70;;;;;;;;;;4978110;28;20450;-80
2024/03/12 08:18:58;;;;;;;130.30;57.93;;;;;;;;;;4977348;28;20543;-81
2024/03/12 08:21:27;;;;;;;112.60;55.13;;;;;;;;;;4976140;28;20448;-79
2024/03/12 08:23:56;;;;;;;106.07;55.10;;;;;;;;;;4977622;28;20474;-81
2024/03/12 08:26:23;;;;;;;122.63;57.23;;;;;;;;;;4977471;28;20455;-80
2024/03/12 08:28:51;;;;;;;100.70;55.70;;;;;;;;;;4978006;28;20480;-80
2024/03/12 08:31:18;;;;;;;100.67;53.10;;;;;;;;;;4976171;28;20470;-81
2024/03/12 08:33:45;;;;;;;123.00;56.57;;;;;;;;;;4977513;28;20662;-80
2024/03/12 08:36:13;;;;;;;114.57;52.50;;;;;;;;;;4977700;28;20496;-82
2024/03/12 08:38:40;;;;;;;106.33;51.57;;;;;;;;;;4977708;28;20490;-81
2024/03/12 08:41:10;;;;;;;90.17;52.83;;;;;;;;;;4976246;28;20478;-81
2024/03/12 08:43:37;;;;;;;72.73;42.97;;;;;;;;;;4977375;28;20433;-80
2024/03/12 08:46:05;;;;;;;73.73;44.27;;;;;;;;;;4977569;28;20442;-81
2024/03/12 08:48:33;;;;;;;84.53;47.13;;;;;;;;;;4977766;28;20777;-81
2024/03/12 08:51:01;;;;;;;75.37;47.90;;;;;;;;;;4976307;28;20470;-81
2024/03/12 08:53:28;;;;;;;76.10;45.30;;;;;;;;;;4977750;28;20474;-80
2024/03/12 08:55:56;;;;;;;70.53;47.90;;;;;;;;;;4978064;28;20466;-80
2024/03/12 08:58:25;;;;;;;72.53;45.50;;;;;;;;;;4977862;28;20472;-81
2024/03/12 09:00:52;;;;;;;74.90;48.70;;;;;;;;;;4976475;28;20530;-81
2024/03/12 09:03:19;;;;;;;64.90;44.72;;;;;;;;;;4977147;28;20879;-81
2024/03/12 09:05:47;;;;;;;62.00;43.00;;;;;;;;;;4977600;28;20233;-80
2024/03/12 09:08:17;;;;;;;60.40;40.80;;;;;;;;;;4977118;28;20596;-80
2024/03/12 09:10:47;;;;;;;63.47;42.73;;;;;;;;;;4976358;28;20485;-81
2024/03/12 09:13:16;;;;;;;50.47;35.20;;;;;;;;;;4976094;28;21019;-80
2024/03/12 09:15:44;;;;;;;58.00;40.50;;;;;;;;;;4977074;28;20517;-81
2024/03/12 09:18:14;;;;;;;46.93;35.40;;;;;;;;;;4976626;28;20424;-80
2024/03/12 09:20:41;;;;;;;46.70;36.77;;;;;;;;;;4975915;28;20488;-81
2024/03/12 09:23:08;;;;;;;49.90;36.67;;;;;;;;;;4976267;28;20463;-81
2024/03/12 09:25:35;;;;;;;47.23;35.30;;;;;;;;;;4976898;28;20500;-80
2024/03/12 09:28:04;;;;;;;56.30;40.07;;;;;;;;;;4976779;28;20420;-80
2024/03/12 09:30:31;;;;;;;46.73;36.40;;;;;;;;;;4976216;28;20476;-80
2024/03/12 09:33:01;;;;;;;51.63;40.77;;;;;;;;;;4976586;28;20524;-80
2024/03/12 09:35:28;;;;;;;52.07;39.83;;;;;;;;;;4975401;28;20482;-80
2024/03/12 09:37:56;;;;;;;52.43;38.87;;;;;;;;;;4977452;28;20449;-80
2024/03/12 09:40:23;;;;;;;43.33;34.47;;;;;;;;;;4976765;28;20496;-81
2024/03/12 09:42:51;;;;;;;49.00;35.40;;;;;;;;;;4976141;28;20454;-81
2024/03/12 09:45:20;;;;;;;40.27;30.90;;;;;;;;;;4979672;28;20876;-80
2024/03/12 09:47:48;;;;;;;39.10;33.97;;;;;;;;;;4980500;28;20458;-80
2024/03/12 09:50:19;;;;;;;42.60;34.90;;;;;;;;;;4980176;28;20454;-79
2024/03/12 09:52:47;;;;;;;35.70;30.63;;;;;;;;;;4979535;28;20549;-81
2024/03/12 09:55:15;;;;;;;44.87;37.63;;;;;;;;;;4979809;28;20477;-80
2024/03/12 09:57:44;;;;;;;38.67;34.43;;;;;;;;;;4980427;28;20461;-81
2024/03/12 10:00:18;;;;;;;36.70;31.70;;;;;;;;;;4980381;28;20806;-81
2024/03/12 10:02:47;;;;;;;31.80;28.67;;;;;;;;;;4980895;28;20424;-82
2024/03/12 10:05:14;;;;;;;43.17;33.27;;;;;;;;;;4980132;28;20955;-79
2024/03/12 10:07:56;;;;;;;38.33;34.27;;;;;;;;;;4979454;28;21000;-79
2024/03/12 10:10:26;;;;;;;41.60;34.87;;;;;;;;;;4979095;28;20501;-80
2024/03/12 10:12:53;;;;;;;38.57;34.30;;;;;;;;;;4979259;28;20929;-80
2024/03/12 10:15:20;;;;;;;26.60;24.30;;;;;;;;;;4980025;28;20944;-80
2024/03/12 10:17:58;;;;;;;38.47;32.57;;;;;;;;;;4979926;28;20448;-79
2024/03/12 10:20:25;;;;;;;35.33;31.77;;;;;;;;;;4980223;28;20514;-80
2024/03/12 10:23:04;;;;;;;33.70;30.10;;;;;;;;;;4979018;28;20515;-80
2024/03/12 10:25:34;;;;;;;28.07;25.30;;;;;;;;;;4979525;28;20454;-80
2024/03/12 10:28:01;;;;;;;31.40;28.20;;;;;;;;;;4979598;28;20445;-81
2024/03/12 10:30:29;;;;;;;34.60;31.03;;;;;;;;;;4979785;28;20457;-80
2024/03/12 10:32:56;;;;;;;35.77;31.97;;;;;;;;;;4979252;28;20454;-80
2024/03/12 10:35:24;;;;;;;32.87;29.40;;;;;;;;;;4979579;28;20537;-80
2024/03/12 10:37:52;;;;;;;33.60;30.07;;;;;;;;;;4979316;28;20439;-81
2024/03/12 10:40:19;;;;;;;34.20;30.80;;;;;;;;;;4979679;28;20460;-80
2024/03/12 10:42:54;;;;;;;26.23;23.87;;;;;;;;;;4979282;28;20433;-81
2024/03/12 10:45:24;;;;;;;30.40;27.07;;;;;;;;;;4979378;28;20493;-80
2024/03/12 10:47:51;;;;;;;24.63;22.57;;;;;;;;;;4979071;28;20523;-80
2024/03/12 10:50:19;;;;;;;33.70;30.10;;;;;;;;;;4978922;28;20405;-80
2024/03/12 10:52:47;;;;;;;34.92;31.33;;;;;;;;;;4978381;28;20827;-81
2024/03/12 10:55:20;;;;;;;35.87;32.20;;;;;;;;;;4979139;28;20239;-80
2024/03/12 10:57:49;;;;;;;33.67;30.07;;;;;;;;;;4977533;28;20485;-80
2024/03/12 11:00:20;;;;;;;29.30;26.47;;;;;;;;;;4979256;28;20508;-80
2024/03/12 11:02:48;;;;;;;33.60;30.30;;;;;;;;;;4978836;28;20451;-82
2024/03/12 11:05:17;;;;;;;32.73;29.60;;;;;;;;;;4979183;28;20497;-80
2024/03/12 11:07:45;;;;;;;33.10;29.70;;;;;;;;;;4979216;28;20518;-80
2024/03/12 11:10:12;;;;;;;30.57;27.73;;;;;;;;;;4978872;28;20458;-80
2024/03/12 11:12:41;;;;;;;30.87;27.73;;;;;;;;;;4978350;28;20439;-81
2024/03/12 11:15:09;;;;;;;34.70;31.23;;;;;;;;;;4978449;28;21049;-80
2024/03/12 11:17:38;;;;;;;32.50;29.27;;;;;;;;;;4980028;28;20494;-81
2024/03/12 11:20:06;;;;;;;36.53;32.70;;;;;;;;;;4981058;28;20899;-80
2024/03/12 11:22:34;;;;;;;33.87;30.43;;;;;;;;;;4980996;28;20434;-80
2024/03/12 11:25:04;;;;;;;30.83;28.17;;;;;;;;;;4978665;28;20466;-80
2024/03/12 11:27:33;;;;;;;31.40;28.27;;;;;;;;;;4978823;28;20492;-80
2024/03/12 11:30:18;;;;;;;31.00;27.87;;;;;;;;;;4977323;28;20529;-80
2024/03/12 11:32:48;;;;;;;31.50;28.13;;;;;;;;;;4977500;28;20452;-80
2024/03/12 11:35:32;;;;;;;29.60;26.40;;;;;;;;;;4978486;28;20577;-80
2024/03/12 11:38:03;;;;;;;25.80;23.03;;;;;;;;;;4977210;28;21008;-80
2024/03/12 11:40:31;;;;;;;31.80;28.37;;;;;;;;;;4978502;28;20486;-81
2024/03/12 11:42:59;;;;;;;29.30;26.33;;;;;;;;;;4977312;28;20436;-81
2024/03/12 11:45:36;;;;;;;30.27;27.10;;;;;;;;;;4978648;28;20566;-80
2024/03/12 11:48:07;;;;;;;33.70;28.07;;;;;;;;;;4978684;28;20425;-80
2024/03/12 11:50:36;;;;;;;29.83;26.77;;;;;;;;;;4977290;28;20454;-81
2024/03/12 11:53:20;;;;;;;29.13;26.23;;;;;;;;;;4978197;28;20872;-81
2024/03/12 11:55:58;;;;;;;20.90;19.10;;;;;;;;;;4977499;28;20482;-82
2024/03/12 11:58:31;;;;;;;26.10;23.80;;;;;;;;;;4978069;28;20458;-80
2024/03/12 12:00:58;;;;;;;22.80;20.90;;;;;;;;;;4977570;28;20481;-80
2024/03/12 12:03:27;;;;;;;29.53;26.60;;;;;;;;;;4977609;28;20482;-80
2024/03/12 12:05:55;;;;;;;22.00;19.93;;;;;;;;;;4977705;28;20561;-81
2024/03/12 12:08:22;;;;;;;24.57;22.27;;;;;;;;;;4977650;28;20517;-79
2024/03/12 12:11:02;;;;;;;28.00;25.37;;;;;;;;;;4976846;28;20451;-83
2024/03/12 12:13:29;;;;;;;25.17;22.90;;;;;;;;;;4975724;28;20561;-81
2024/03/12 12:16:00;;;;;;;24.47;22.17;;;;;;;;;;4977361;28;20874;-80
2024/03/12 12:18:29;;;;;;;20.50;18.87;;;;;;;;;;4977804;28;20428;-81
2024/03/12 12:20:57;;;;;;;28.53;25.83;;;;;;;;;;4977116;28;20482;-79
2024/03/12 12:23:25;;;;;;;25.93;23.27;;;;;;;;;;4977438;28;20509;-80
2024/03/12 12:25:53;;;;;;;26.13;23.83;;;;;;;;;;4976940;28;21400;-80
2024/03/12 12:28:22;;;;;;;27.17;24.40;;;;;;;;;;4977651;28;20946;-80
2024/03/12 12:30:50;;;;;;;30.40;27.50;;;;;;;;;;4977081;28;20958;-80
2024/03/12 12:33:17;;;;;;;30.87;27.70;;;;;;;;;;4977110;28;20458;-79
2024/03/12 12:35:47;;;;;;;28.70;26.20;;;;;;;;;;4977733;28;20425;-81
2024/03/12 12:38:16;;;;;;;28.43;25.73;;;;;;;;;;4977760;28;20458;-80
2024/03/12 12:40:44;;;;;;;23.63;21.70;;;;;;;;;;4976665;28;20470;-82
2024/03/12 12:43:15;;;;;;;19.93;18.53;;;;;;;;;;4977617;28;20457;-81
2024/03/12 12:45:43;;;;;;;27.90;25.30;;;;;;;;;;4977580;28;21055;-81
2024/03/12 12:48:11;;;;;;;27.67;25.50;;;;;;;;;;4977617;28;20466;-81
2024/03/12 12:50:38;;;;;;;28.97;26.17;;;;;;;;;;4975980;28;20981;-80
2024/03/12 12:53:08;;;;;;;28.93;26.13;;;;;;;;;;4977681;28;20433;-81
2024/03/12 12:55:40;;;;;;;30.83;27.93;;;;;;;;;;4976119;28;20953;-81
2024/03/12 12:58:09;;;;;;;30.00;27.03;;;;;;;;;;4977021;28;20417;-80
2024/03/12 13:00:37;;;;;;;31.73;28.67;;;;;;;;;;4977232;28;20496;-81
2024/03/12 13:03:16;;;;;;;32.87;29.80;;;;;;;;;;4976341;28;20458;-81
2024/03/12 13:05:44;;;;;;;32.80;29.67;;;;;;;;;;4977183;28;20517;-80
2024/03/12 13:08:26;;;;;;;31.83;28.50;;;;;;;;;;4976207;28;20474;-80
2024/03/12 13:10:59;;;;;;;32.37;29.27;;;;;;;;;;4976389;28;20430;-80
2024/03/12 13:13:27;;;;;;;30.57;27.17;;;;;;;;;;4976710;28;20454;-81
2024/03/12 13:15:56;;;;;;;30.03;27.13;;;;;;;;;;4976043;28;20827;-80
2024/03/12 13:18:23;;;;;;;30.30;27.10;;;;;;;;;;4976049;28;20426;-80
2024/03/12 13:20:50;;;;;;;30.97;27.43;;;;;;;;;;4976432;28;20453;-81
2024/03/12 13:23:17;;;;;;;30.47;27.30;;;;;;;;;;4976954;28;20477;-81
2024/03/12 13:25:46;;;;;;;27.90;25.10;;;;;;;;;;4976373;28;20493;-81
2024/03/12 13:28:15;;;;;;;30.10;27.03;;;;;;;;;;4976836;28;20450;-80
2024/03/12 13:30:43;;;;;;;29.37;26.30;;;;;;;;;;4976082;28;20438;-80
2024/03/12 13:33:10;;;;;;;32.17;28.40;;;;;;;;;;4976645;28;20424;-82
2024/03/12 13:35:39;;;;;;;28.77;26.03;;;;;;;;;;4976477;28;20442;-81
2024/03/12 13:38:06;;;;;;;25.87;23.27;;;;;;;;;;4976151;28;20428;-81
2024/03/12 13:40:33;;;;;;;31.57;26.00;;;;;;;;;;4976340;28;20485;-81
2024/03/12 13:43:03;;;;;;;32.07;27.70;;;;;;;;;;4974619;28;20436;-82
2024/03/12 13:45:30;;;;;;;32.03;28.50;;;;;;;;;;4976693;28;21010;-80
2024/03/12 13:47:57;;;;;;;31.30;27.90;;;;;;;;;;4976759;28;20938;-80
2024/03/12 13:50:24;;;;;;;33.20;29.33;;;;;;;;;;4975921;28;20420;-82
2024/03/12 13:52:52;;;;;;;41.30;30.20;;;;;;;;;;4975550;28;20421;-81
2024/03/12 13:55:19;;;;;;;35.60;30.43;;;;;;;;;;4975350;28;20481;-80
2024/03/12 13:57:46;;;;;;;32.20;28.97;;;;;;;;;;4976543;28;20393;-80
2024/03/12 14:00:16;;;;;;;30.50;27.40;;;;;;;;;;4975714;28;20489;-82
2024/03/12 14:02:43;;;;;;;30.50;27.23;;;;;;;;;;4975925;28;20447;-81
2024/03/12 14:05:12;;;;;;;32.87;28.17;;;;;;;;;;4975894;28;20474;-81
2024/03/12 14:07:40;;;;;;;32.43;27.80;;;;;;;;;;4976230;28;21014;-81
2024/03/12 14:10:08;;;;;;;35.10;28.70;;;;;;;;;;4976524;28;20985;-81
2024/03/12 14:12:35;;;;;;;34.60;31.07;;;;;;;;;;4975558;28;20560;-81
2024/03/12 14:15:02;;;;;;;31.43;27.97;;;;;;;;;;4975786;28;20466;-80
2024/03/12 14:17:31;;;;;;;30.13;27.10;;;;;;;;;;4976656;28;20508;-81
2024/03/12 14:19:58;;;;;;;27.70;25.33;;;;;;;;;;4976118;28;20456;-81
2024/03/12 14:22:25;;;;;;;37.13;33.20;;;;;;;;;;4976080;28;20471;-81
2024/03/12 14:24:52;;;;;;;35.83;32.00;;;;;;;;;;4976431;28;20549;-80
2024/03/12 14:27:19;;;;;;;33.43;30.10;;;;;;;;;;4976160;28;20784;-80
2024/03/12 14:29:46;;;;;;;41.10;33.13;;;;;;;;;;4977252;28;20469;-80